Time;durP1;ratioP1;P1;durP2;ratioP2;P2;SDS_P1;SDS_P2;PMS_P1;PMS_P2;Temp;Humidity;BMP_temperature;BMP_pressure;BME280_temperature;BME280_humidity;BME280_pressure;Samples;Min_cycle;Max_cycle;Signal;HPM_P1;HPM_P2
2023/02/25 00:00:43;;;;;;;15.02;5.28;;;;;;;8.71;100.00;98431.53;6351331;28;20494;-78
2023/02/25 00:03:43;;;;;;;10.07;4.57;;;;;;;8.64;100.00;98429.41;6351286;28;20559;-75
2023/02/25 00:06:46;;;;;;;11.43;6.13;;;;;;;8.60;100.00;98416.78;6351071;28;20039;-77
2023/02/25 00:09:47;;;;;;;11.40;5.07;;;;;;;8.68;100.00;98419.63;6350927;28;20403;-78
2023/02/25 00:12:48;;;;;;;8.50;4.97;;;;;;;8.65;100.00;98417.28;6350961;28;20092;-78
2023/02/25 00:15:49;;;;;;;8.45;4.72;;;;;;;8.61;100.00;98408.06;6350914;28;20043;-78
2023/02/25 00:18:54;;;;;;;19.15;4.88;;;;;;;8.54;100.00;98399.06;6349710;28;20074;-77
2023/02/25 00:21:57;;;;;;;13.57;5.25;;;;;;;8.56;100.00;98398.00;6350948;28;20047;-78
2023/02/25 00:24:58;;;;;;;7.97;4.15;;;;;;;8.40;100.00;98380.19;6350666;28;20139;-77
2023/02/25 00:27:59;;;;;;;11.48;5.47;;;;;;;8.44;100.00;98381.63;6349574;28;20491;-78
2023/02/25 00:31:08;;;;;;;10.98;5.45;;;;;;;8.36;100.00;98377.91;6349549;28;20067;-76
2023/02/25 00:34:09;;;;;;;12.30;4.82;;;;;;;8.45;100.00;98362.47;6348219;28;20039;-73
2023/02/25 00:37:12;;;;;;;14.32;6.05;;;;;;;8.38;100.00;98369.06;6346866;28;20051;-75
2023/02/25 00:40:16;;;;;;;20.92;3.55;;;;;;;8.27;100.00;98364.69;6347046;28;20459;-71
2023/02/25 00:43:18;;;;;;;17.58;5.78;;;;;;;8.28;100.00;98357.75;6346913;28;20043;-71
2023/02/25 00:46:21;;;;;;;6.38;3.17;;;;;;;8.08;100.00;98351.50;6347110;28;20046;-71
2023/02/25 00:49:25;;;;;;;6.40;4.43;;;;;;;8.17;100.00;98342.16;6348000;28;20437;-71
2023/02/25 00:52:26;;;;;;;7.40;4.70;;;;;;;8.04;100.00;98340.53;6347778;28;20039;-71
2023/02/25 00:55:32;;;;;;;10.32;6.13;;;;;;;8.02;100.00;98333.81;6346638;28;20085;-71
2023/02/25 00:58:38;;;;;;;11.80;4.95;;;;;;;7.99;100.00;98327.09;6347731;28;20043;-71
2023/02/25 01:01:40;;;;;;;12.93;5.07;;;;;;;7.93;100.00;98324.13;6347660;28;20042;-72
2023/02/25 01:04:43;;;;;;;6.53;3.50;;;;;;;7.82;100.00;98317.16;6346454;28;20044;-71
2023/02/25 01:07:44;;;;;;;6.22;2.65;;;;;;;7.78;100.00;98302.75;6347559;28;20039;-71
2023/02/25 01:10:45;;;;;;;11.20;4.28;;;;;;;7.88;100.00;98301.91;6346216;28;20130;-71
2023/02/25 01:13:48;;;;;;;5.95;3.92;;;;;;;7.76;100.00;98297.72;6380436;27;20039;-71
2023/02/25 01:16:50;;;;;;;9.02;4.47;;;;;;;7.72;100.00;98304.09;6347377;28;20434;-71
2023/02/25 01:19:51;;;;;;;9.38;4.32;;;;;;;7.71;100.00;98288.63;6381034;27;20506;-76
2023/02/25 01:22:52;;;;;;;12.07;5.47;;;;;;;7.73;100.00;98281.53;6349089;28;20047;-76
2023/02/25 01:25:52;;;;;;;7.72;4.78;;;;;;;7.68;100.00;98281.91;6347942;28;20044;-76
2023/02/25 01:28:54;;;;;;;12.38;4.93;;;;;;;7.74;100.00;98272.78;6347932;28;20039;-76
2023/02/25 01:31:58;;;;;;;7.70;4.93;;;;;;;7.62;100.00;98267.63;6381930;27;20092;-76
2023/02/25 01:34:59;;;;;;;7.57;3.72;;;;;;;7.62;100.00;98269.41;6347516;28;20043;-76
2023/02/25 01:38:00;;;;;;;7.90;3.95;;;;;;;7.65;100.00;98259.56;6348807;28;20403;-76
2023/02/25 01:41:01;;;;;;;7.90;4.53;;;;;;;7.58;100.00;98250.63;6347624;28;20116;-76
2023/02/25 01:44:17;;;;;;;9.40;4.00;;;;;;;7.58;100.00;98250.63;6347660;28;20403;-76
2023/02/25 01:47:21;;;;;;;7.03;3.97;;;;;;;7.60;100.00;98246.16;6346370;28;20079;-76
2023/02/25 01:50:27;;;;;;;6.15;4.35;;;;;;;7.62;100.00;98243.44;6348605;28;20043;-76
2023/02/25 01:53:39;;;;;;;8.80;5.45;;;;;;;7.58;100.00;98244.63;6348445;28;20043;-76
2023/02/25 01:56:43;;;;;;;5.37;3.87;;;;;;;7.59;100.00;98228.09;6347397;28;20118;-76
2023/02/25 01:59:47;;;;;;;14.52;5.43;;;;;;;7.61;100.00;98224.41;6348457;28;20055;-76
2023/02/25 02:02:48;;;;;;;10.13;4.20;;;;;;;7.55;100.00;98217.09;6347097;28;20102;-75
2023/02/25 02:06:14;;;;;;;7.07;4.03;;;;;;;7.52;100.00;98213.94;6348416;28;20047;-76
2023/02/25 02:09:23;;;;;;;8.18;3.75;;;;;;;7.43;100.00;98205.94;6348221;27;20506;-76
2023/02/25 02:12:34;;;;;;;8.63;5.18;;;;;;;7.55;100.00;98205.91;6348375;28;20046;-76
2023/02/25 02:15:38;;;;;;;16.58;4.88;;;;;;;7.45;100.00;98198.00;6347091;28;20499;-75
2023/02/25 02:18:47;;;;;;;6.28;4.10;;;;;;;7.47;100.00;98190.94;6346815;28;20039;-75
2023/02/25 02:22:09;;;;;;;16.90;4.50;;;;;;;7.51;100.00;98181.13;6345443;28;20043;-72
2023/02/25 02:25:31;;;;;;;21.75;4.57;;;;;;;7.48;100.00;98164.06;6344650;28;20096;-71
2023/02/25 02:28:52;;;;;;;9.57;3.78;;;;;;;7.61;100.00;98172.50;6344671;28;20043;-72
2023/02/25 02:32:08;;;;;;;8.70;4.38;;;;;;;7.60;100.00;98165.69;6346610;28;20433;-75
2023/02/25 02:35:47;;;;;;;5.63;3.33;;;;;;;7.71;100.00;98158.81;6347548;28;20118;-75
2023/02/25 02:39:00;;;;;;;6.43;3.58;;;;;;;7.75;100.00;98157.63;6344884;28;20051;-75
2023/02/25 02:42:34;;;;;;;14.57;4.22;;;;;;;7.83;100.00;98155.25;6346354;28;20044;-75
2023/02/25 02:45:47;;;;;;;6.22;4.15;;;;;;;7.90;100.00;98163.38;6344475;28;20055;-76
2023/02/25 02:49:01;;;;;;;16.83;4.32;;;;;;;7.89;100.00;98152.16;6347369;28;20040;-76
2023/02/25 02:52:14;;;;;;;10.27;4.75;;;;;;;7.94;100.00;98144.81;6347403;28;20048;-75
2023/02/25 02:55:21;;;;;;;5.75;3.47;;;;;;;7.89;100.00;98141.78;6347372;28;20043;-76
2023/02/25 02:58:28;;;;;;;7.47;3.80;;;;;;;7.94;100.00;98133.59;6350525;28;20096;-75
2023/02/25 03:01:33;;;;;;;9.13;4.32;;;;;;;7.82;100.00;98125.88;6351392;28;20046;-76
2023/02/25 03:04:43;;;;;;;5.60;3.58;;;;;;;7.78;100.00;98126.22;6352447;28;20051;-76
2023/02/25 03:08:09;;;;;;;7.13;4.13;;;;;;;7.86;100.00;98124.66;6351102;28;20472;-75
2023/02/25 03:11:10;;;;;;;7.60;4.65;;;;;;;7.78;100.00;98115.81;6352106;28;20193;-75
2023/02/25 03:14:15;;;;;;;7.82;3.80;;;;;;;7.81;100.00;98113.81;6352069;28;20048;-75
2023/02/25 03:17:22;;;;;;;7.53;3.47;;;;;;;7.85;100.00;98123.00;6350800;28;20498;-75
2023/02/25 03:20:53;;;;;;;5.97;3.58;;;;;;;7.81;100.00;98121.59;6350773;28;20050;-76
2023/02/25 03:23:54;;;;;;;13.18;4.90;;;;;;;7.84;100.00;98128.31;6342724;28;20056;-75
2023/02/25 03:26:57;;;;;;;6.25;4.07;;;;;;;7.87;100.00;98121.13;6350439;28;20039;-75
2023/02/25 03:30:34;;;;;;;7.03;3.30;;;;;;;7.86;100.00;98119.47;6351645;28;20061;-75
2023/02/25 03:33:46;;;;;;;8.18;4.07;;;;;;;7.85;100.00;98120.41;6347707;28;20059;-76
2023/02/25 03:37:01;;;;;;;10.43;4.82;;;;;;;7.78;100.00;98118.41;6350625;28;20036;-75
2023/02/25 03:40:13;;;;;;;7.78;3.92;;;;;;;7.63;100.00;98108.31;6350284;28;20466;-75
2023/02/25 03:43:19;;;;;;;12.10;4.05;;;;;;;7.67;100.00;98108.91;6351787;28;20101;-75
2023/02/25 03:46:25;;;;;;;7.15;3.78;;;;;;;7.53;100.00;98098.81;6350352;28;20542;-75
2023/02/25 03:49:34;;;;;;;6.45;3.58;;;;;;;7.52;100.00;98100.56;6351692;28;20092;-75
2023/02/25 03:52:38;;;;;;;11.63;3.88;;;;;;;7.46;100.00;98101.88;6351273;28;20118;-75
2023/02/25 03:55:39;;;;;;;7.25;3.65;;;;;;;7.45;100.00;98097.66;6349231;28;20097;-71
2023/02/25 03:58:42;;;;;;;6.70;3.67;;;;;;;7.50;100.00;98101.66;6348137;28;20047;-71
2023/02/25 04:01:47;;;;;;;8.02;4.00;;;;;;;7.58;100.00;98101.88;6349271;28;20495;-71
2023/02/25 04:04:48;;;;;;;13.73;4.18;;;;;;;7.57;100.00;98092.41;6348036;28;20039;-71
2023/02/25 04:07:49;;;;;;;5.68;2.85;;;;;;;7.53;100.00;98099.63;6349525;28;20180;-72
2023/02/25 04:10:51;;;;;;;7.70;5.30;;;;;;;7.53;100.00;98097.03;6346886;28;20093;-72
2023/02/25 04:13:51;;;;;;;5.72;3.25;;;;;;;7.57;100.00;98095.84;6348701;28;20510;-72
2023/02/25 04:16:54;;;;;;;15.57;4.85;;;;;;;7.60;100.00;98084.41;6348936;28;20035;-72
2023/02/25 04:19:55;;;;;;;7.25;4.40;;;;;;;7.62;100.00;98098.09;6348652;28;20050;-72
2023/02/25 04:22:56;;;;;;;7.60;4.10;;;;;;;7.57;100.00;98088.03;6347450;28;20047;-72
2023/02/25 04:25:57;;;;;;;9.35;4.05;;;;;;;7.58;100.00;98092.31;6347328;28;20035;-71
2023/02/25 04:29:00;;;;;;;5.63;2.78;;;;;;;7.58;100.00;98091.50;6347259;28;20187;-71
2023/02/25 04:32:01;;;;;;;3.58;2.03;;;;;;;7.61;100.00;98093.81;6348489;28;20513;-71
2023/02/25 04:35:04;;;;;;;7.15;3.83;;;;;;;7.77;100.00;98088.22;6348265;28;20039;-71
2023/02/25 04:38:05;;;;;;;3.80;2.67;;;;;;;7.82;100.00;98080.88;6348132;28;20134;-71
2023/02/25 04:41:06;;;;;;;7.97;3.00;;;;;;;7.87;100.00;98091.72;6346967;28;20123;-71
2023/02/25 04:44:10;;;;;;;5.10;3.10;;;;;;;7.88;100.00;98089.00;6348115;28;20039;-72
2023/02/25 04:47:10;;;;;;;8.52;3.08;;;;;;;7.99;100.00;98077.75;6347972;28;20065;-71
2023/02/25 04:50:12;;;;;;;5.90;3.08;;;;;;;8.05;100.00;98069.47;6347990;28;20036;-71
2023/02/25 04:53:15;;;;;;;7.43;4.07;;;;;;;8.06;100.00;98059.88;6347774;28;20043;-71
2023/02/25 04:56:16;;;;;;;7.88;3.47;;;;;;;8.12;100.00;98085.34;6347801;27;20403;-71
2023/02/25 04:59:19;;;;;;;6.70;3.45;;;;;;;8.17;100.00;98082.38;6347756;28;20042;-72
2023/02/25 05:02:22;;;;;;;6.80;3.47;;;;;;;8.13;100.00;98070.59;6347585;28;20407;-70
2023/02/25 05:05:23;;;;;;;5.53;2.80;;;;;;;8.17;100.00;98071.97;6346315;28;20487;-71
2023/02/25 05:08:24;;;;;;;7.75;3.30;;;;;;;8.16;100.00;98070.34;6346503;28;20043;-75
2023/02/25 05:11:27;;;;;;;4.38;2.85;;;;;;;8.24;100.00;98067.94;6348365;28;20042;-75
2023/02/25 05:14:28;;;;;;;6.32;3.15;;;;;;;8.26;100.00;98071.22;6347893;28;20071;-75
2023/02/25 05:17:28;;;;;;;3.88;2.70;;;;;;;8.31;100.00;98063.88;6348053;28;20088;-75
2023/02/25 05:20:32;;;;;;;7.57;4.35;;;;;;;8.42;100.00;98063.84;6349019;28;20431;-75
2023/02/25 05:23:33;;;;;;;6.95;4.32;;;;;;;8.42;100.00;98058.66;6347868;28;20048;-75
2023/02/25 05:26:33;;;;;;;6.57;2.85;;;;;;;8.36;100.00;98063.47;6349072;28;20065;-75
2023/02/25 05:29:35;;;;;;;14.95;3.85;;;;;;;8.29;100.00;98052.78;6348869;28;20040;-75
2023/02/25 05:32:38;;;;;;;6.77;3.20;;;;;;;8.35;100.00;98048.84;6347634;28;20436;-75
2023/02/25 05:35:41;;;;;;;4.18;3.00;;;;;;;8.33;100.00;98050.75;6347684;28;20039;-75
2023/02/25 05:38:46;;;;;;;7.43;3.80;;;;;;;8.46;100.00;98057.44;6348688;28;20083;-75
2023/02/25 05:41:47;;;;;;;4.38;2.95;;;;;;;8.49;100.00;98055.53;6347574;28;20036;-76
2023/02/25 05:44:48;;;;;;;6.03;3.33;;;;;;;8.56;100.00;98043.66;6348600;28;20043;-75
2023/02/25 05:47:49;;;;;;;4.00;2.50;;;;;;;8.53;100.00;98044.75;6347470;28;20043;-75
2023/02/25 05:50:50;;;;;;;11.93;3.50;;;;;;;8.67;100.00;98061.78;6347389;28;20044;-75
2023/02/25 05:53:52;;;;;;;15.60;4.75;;;;;;;8.59;100.00;98044.22;6348338;28;20089;-75
2023/02/25 05:56:52;;;;;;;6.50;3.17;;;;;;;8.59;100.00;98049.41;6348508;28;20044;-75
2023/02/25 05:59:53;;;;;;;9.80;4.65;;;;;;;8.72;100.00;98048.38;6348569;28;20495;-75
2023/02/25 06:02:58;;;;;;;7.45;3.55;;;;;;;8.66;100.00;98045.31;6347228;28;20043;-75
2023/02/25 06:05:59;;;;;;;4.05;2.67;;;;;;;8.71;100.00;98062.31;6348336;28;20141;-75
2023/02/25 06:09:00;;;;;;;7.90;3.20;;;;;;;8.74;100.00;98056.88;6347225;28;20053;-75
2023/02/25 06:12:01;;;;;;;6.32;3.45;;;;;;;8.77;100.00;98056.59;6348361;28;20540;-75
2023/02/25 06:15:03;;;;;;;7.32;3.30;;;;;;;8.71;100.00;98050.16;6346994;28;20036;-75
2023/02/25 06:18:04;;;;;;;4.50;2.92;;;;;;;8.70;100.00;98047.69;6348155;28;20483;-75
2023/02/25 06:21:08;;;;;;;12.32;3.55;;;;;;;8.83;100.00;98050.88;6348123;28;20043;-75
2023/02/25 06:24:09;;;;;;;7.35;3.25;;;;;;;8.74;100.00;98051.66;6346657;28;20475;-75
2023/02/25 06:27:10;;;;;;;10.45;2.95;;;;;;;8.70;100.00;98061.50;6348102;28;20048;-75
2023/02/25 06:30:11;;;;;;;6.28;3.05;;;;;;;8.68;100.00;98066.00;6347928;28;20050;-75
2023/02/25 06:33:15;;;;;;;6.40;3.25;;;;;;;8.64;100.00;98062.84;6347252;28;20092;-75
2023/02/25 06:36:20;;;;;;;9.93;4.10;;;;;;;8.61;100.00;98064.88;6347858;28;20049;-76
2023/02/25 06:39:23;;;;;;;4.40;2.60;;;;;;;8.56;100.00;98074.84;6347581;28;20078;-76
2023/02/25 06:42:26;;;;;;;5.80;3.38;;;;;;;8.70;100.00;98076.28;6346899;28;20039;-76
2023/02/25 06:45:27;;;;;;;5.97;3.08;;;;;;;8.65;100.00;98068.88;6346667;28;20044;-76
2023/02/25 06:48:28;;;;;;;9.55;3.05;;;;;;;8.61;100.00;98060.50;6346442;28;20046;-76
2023/02/25 06:51:29;;;;;;;9.25;3.17;;;;;;;8.63;100.00;98073.38;6347643;28;20188;-76
2023/02/25 06:54:32;;;;;;;7.95;2.80;;;;;;;8.59;100.00;98080.59;6347678;28;20036;-76
2023/02/25 06:57:36;;;;;;;10.52;3.38;;;;;;;8.71;100.00;98083.97;6347708;28;20050;-75
2023/02/25 07:00:36;;;;;;;12.50;4.28;;;;;;;8.64;100.00;98099.22;6347708;28;20039;-75
2023/02/25 07:03:37;;;;;;;10.05;4.28;;;;;;;8.74;100.00;98099.28;6347609;28;20071;-76
2023/02/25 07:06:40;;;;;;;6.50;4.45;;;;;;;8.70;100.00;98102.28;6347650;28;20075;-76
2023/02/25 07:09:41;;;;;;;4.43;3.20;;;;;;;8.71;100.00;98103.91;6347691;28;20046;-76
2023/02/25 07:12:41;;;;;;;8.02;3.85;;;;;;;8.73;100.00;98094.22;6346335;28;20036;-75
2023/02/25 07:15:42;;;;;;;7.32;4.03;;;;;;;8.68;100.00;98103.22;6347462;28;20047;-75
2023/02/25 07:18:44;;;;;;;12.10;5.13;;;;;;;8.65;100.00;98100.91;6346398;28;20043;-75
2023/02/25 07:21:44;;;;;;;5.13;3.40;;;;;;;8.59;100.00;98100.59;6380743;27;20036;-76
2023/02/25 07:24:45;;;;;;;7.05;3.30;;;;;;;8.57;100.00;98098.13;6346291;28;20044;-75
2023/02/25 07:27:46;;;;;;;10.95;3.88;;;;;;;8.51;100.00;98096.03;6346018;28;20039;-75
2023/02/25 07:30:47;;;;;;;5.78;3.20;;;;;;;8.54;100.00;98097.53;6347702;28;20039;-76
2023/02/25 07:33:51;;;;;;;9.60;3.42;;;;;;;8.49;100.00;98099.72;6346133;28;20465;-76
2023/02/25 07:36:52;;;;;;;19.65;4.60;;;;;;;8.34;100.00;98100.00;6346622;28;20063;-76
2023/02/25 07:39:52;;;;;;;9.43;3.83;;;;;;;8.46;100.00;98093.81;6347222;28;20152;-76
2023/02/25 07:42:55;;;;;;;8.00;3.47;;;;;;;8.31;100.00;98086.44;6346078;28;20077;-76
2023/02/25 07:45:57;;;;;;;8.25;4.40;;;;;;;8.34;100.00;98094.81;6350967;28;20043;-76
2023/02/25 07:48:58;;;;;;;16.33;6.05;;;;;;;8.40;100.00;98103.84;6351984;28;20055;-76
2023/02/25 07:51:59;;;;;;;9.00;4.43;;;;;;;8.42;100.00;98091.59;6350733;28;20036;-76
2023/02/25 07:55:01;;;;;;;6.10;3.50;;;;;;;8.35;100.00;98095.63;6350611;28;20264;-76
2023/02/25 07:58:04;;;;;;;15.20;4.55;;;;;;;8.33;100.00;98095.75;6351596;28;20047;-76
2023/02/25 08:01:10;;;;;;;9.50;4.20;;;;;;;8.32;100.00;98096.72;6350368;28;20039;-76
2023/02/25 08:04:14;;;;;;;13.25;4.40;;;;;;;8.28;100.00;98106.53;6351534;28;20117;-76
2023/02/25 08:07:15;;;;;;;10.32;4.57;;;;;;;8.22;100.00;98109.63;6350282;28;20059;-76
2023/02/25 08:10:16;;;;;;;9.07;4.05;;;;;;;8.27;100.00;98115.25;6351357;28;20402;-76
2023/02/25 08:13:18;;;;;;;6.82;4.00;;;;;;;8.28;100.00;98118.69;6351405;28;20039;-73
2023/02/25 08:16:20;;;;;;;14.85;4.53;;;;;;;8.15;100.00;98133.63;6349195;28;20067;-76
2023/02/25 08:19:20;;;;;;;7.30;3.95;;;;;;;8.18;100.00;98138.59;6351188;28;20047;-76
2023/02/25 08:22:21;;;;;;;9.07;4.15;;;;;;;8.03;100.00;98146.69;6351144;28;20048;-76
2023/02/25 08:25:22;;;;;;;9.95;4.95;;;;;;;7.94;100.00;98149.19;6350762;28;20051;-76
2023/02/25 08:28:25;;;;;;;5.85;3.92;;;;;;;7.96;100.00;98149.88;6350718;28;20058;-76
2023/02/25 08:31:26;;;;;;;15.27;7.72;;;;;;;7.99;100.00;98147.03;6350965;28;20436;-76
2023/02/25 08:34:27;;;;;;;12.02;6.68;;;;;;;7.92;100.00;98145.88;6350203;28;20043;-76
2023/02/25 08:37:27;;;;;;;12.90;6.32;;;;;;;7.87;100.00;98141.06;6348599;28;20445;-77
2023/02/25 08:40:28;;;;;;;10.20;4.50;;;;;;;7.82;100.00;98146.63;6348404;28;20069;-77
2023/02/25 08:43:32;;;;;;;8.02;4.15;;;;;;;7.71;100.00;98148.44;6349409;28;20127;-77
2023/02/25 08:46:33;;;;;;;8.60;4.32;;;;;;;7.58;100.00;98144.22;6349190;28;20039;-77
2023/02/25 08:49:36;;;;;;;5.10;3.05;;;;;;;7.41;100.00;98155.06;6349435;28;20403;-77
2023/02/25 08:52:37;;;;;;;7.20;3.03;;;;;;;7.44;100.00;98149.66;6347586;28;20440;-77
2023/02/25 08:55:38;;;;;;;2.83;1.95;;;;;;;7.30;100.00;98153.31;6347046;28;20087;-77
2023/02/25 08:58:39;;;;;;;4.72;2.17;;;;;;;7.26;100.00;98151.91;6348160;28;20039;-78
2023/02/25 09:01:43;;;;;;;6.35;3.00;;;;;;;7.32;100.00;98155.81;6347838;28;20046;-78
2023/02/25 09:04:44;;;;;;;2.10;1.20;;;;;;;7.26;100.00;98163.09;6347784;28;20046;-78
2023/02/25 09:07:45;;;;;;;3.28;1.63;;;;;;;7.37;100.00;98154.50;6347587;28;20476;-78
2023/02/25 09:10:46;;;;;;;3.13;2.00;;;;;;;7.49;100.00;98149.28;6346514;28;20032;-78
2023/02/25 09:13:49;;;;;;;3.45;1.83;;;;;;;7.43;100.00;98153.19;6346310;28;20043;-78
2023/02/25 09:16:49;;;;;;;3.50;1.02;;;;;;;7.28;100.00;98139.66;6346326;28;20039;-78
2023/02/25 09:19:52;;;;;;;2.95;1.45;;;;;;;7.33;100.00;98153.09;6346279;28;20428;-78
2023/02/25 09:22:53;;;;;;;3.75;1.58;;;;;;;7.29;100.00;98154.28;6347409;28;20521;-78
2023/02/25 09:25:54;;;;;;;1.88;1.30;;;;;;;7.50;100.00;98158.75;6346280;28;20036;-78
2023/02/25 09:29:02;;;;;;;6.07;2.30;;;;;;;7.32;100.00;98150.63;6346084;28;20118;-78
2023/02/25 09:32:04;;;;;;;3.63;1.95;;;;;;;7.48;100.00;98148.47;6347389;28;20046;-78
2023/02/25 09:35:06;;;;;;;6.85;2.58;;;;;;;7.50;100.00;98153.56;6347197;28;20036;-78
2023/02/25 09:38:10;;;;;;;13.25;5.07;;;;;;;7.38;100.00;98156.16;6345751;28;20062;-77
2023/02/25 09:41:29;;;;;;;2.53;2.05;;;;;;;7.52;100.00;98151.66;6347157;28;20047;-78
2023/02/25 09:44:44;;;;;;;3.50;1.52;;;;;;;7.53;100.00;98154.13;6345809;28;20054;-78
2023/02/25 09:47:51;;;;;;;26.33;11.88;;;;;;;7.51;100.00;98158.59;6345708;28;20051;-78
2023/02/25 09:50:56;;;;;;;2.90;1.58;;;;;;;7.32;100.00;98187.75;6345948;28;20476;-78
2023/02/25 09:54:12;;;;;;;2.80;1.40;;;;;;;7.39;99.73;98186.34;6346771;28;20040;-78
2023/02/25 09:57:22;;;;;;;1.90;1.52;;;;;;;7.51;96.97;98189.75;6345807;28;20497;-78
2023/02/25 10:00:23;;;;;;;1.30;0.90;;;;;;;7.35;93.25;98199.66;6345925;28;20043;-78
2023/02/25 10:03:39;;;;;;;2.10;1.23;;;;;;;7.28;93.36;98214.06;6345932;28;20050;-77
2023/02/25 10:06:44;;;;;;;1.27;0.85;;;;;;;7.25;91.72;98213.34;6346246;28;20040;-78
2023/02/25 10:10:00;;;;;;;1.90;1.05;;;;;;;7.28;89.32;98195.91;6346963;28;20040;-77
2023/02/25 10:13:18;;;;;;;1.65;0.80;;;;;;;7.19;89.86;98202.63;6345671;28;20440;-77
2023/02/25 10:16:25;;;;;;;2.97;0.98;;;;;;;7.18;87.68;98217.34;6346728;28;20051;-77
2023/02/25 10:19:59;;;;;;;0.57;0.55;;;;;;;7.20;85.25;98202.50;6347107;28;20040;-77
2023/02/25 10:23:26;;;;;;;2.08;1.38;;;;;;;7.31;86.40;98195.66;6346758;28;20058;-77
2023/02/25 10:26:37;;;;;;;4.10;1.27;;;;;;;7.28;85.75;98182.94;6345556;28;20452;-77
2023/02/25 10:29:45;;;;;;;0.57;0.55;;;;;;;7.21;84.66;98186.00;6345472;28;20088;-77
2023/02/25 10:32:47;;;;;;;2.20;0.95;;;;;;;7.34;85.38;98179.88;6346723;28;20035;-77
2023/02/25 10:36:06;;;;;;;0.73;0.73;;;;;;;7.35;85.00;98200.50;6345563;28;20047;-77
2023/02/25 10:39:09;;;;;;;0.90;0.82;;;;;;;7.32;86.34;98195.53;6346353;28;20461;-77
2023/02/25 10:42:10;;;;;;;2.17;1.23;;;;;;;7.12;86.54;98178.09;6345424;28;20039;-77
2023/02/25 10:45:19;;;;;;;6.18;1.90;;;;;;;7.07;87.39;98184.44;6345596;28;20043;-77
2023/02/25 10:48:23;;;;;;;1.25;0.98;;;;;;;7.12;87.46;98178.09;6345681;28;20115;-77
2023/02/25 10:51:27;;;;;;;1.17;1.00;;;;;;;7.15;88.30;98175.28;6345333;28;20122;-77
2023/02/25 10:54:34;;;;;;;2.55;1.27;;;;;;;7.19;87.97;98180.09;6346301;28;20112;-77
2023/02/25 10:57:41;;;;;;;2.88;1.50;;;;;;;7.16;87.13;98195.06;6346870;28;20043;-77
2023/02/25 11:00:43;;;;;;;1.75;1.55;;;;;;;7.12;89.09;98188.47;6346646;28;20540;-77
2023/02/25 11:04:00;;;;;;;3.17;1.73;;;;;;;7.22;89.41;98192.81;6345660;28;20052;-77
2023/02/25 11:07:22;;;;;;;6.90;2.10;;;;;;;7.55;87.74;98178.19;6347151;28;20300;-77
2023/02/25 11:10:24;;;;;;;1.63;1.23;;;;;;;7.50;86.34;98184.69;6346435;28;20312;-77
2023/02/25 11:13:30;;;;;;;3.35;2.28;;;;;;;7.64;86.61;98169.69;6347269;28;20122;-77
2023/02/25 11:16:36;;;;;;;2.38;1.98;;;;;;;7.65;85.49;98144.53;6346921;28;20070;-77
2023/02/25 11:19:41;;;;;;;3.25;2.30;;;;;;;7.57;86.96;98159.91;6349037;28;20097;-77
2023/02/25 11:22:45;;;;;;;3.63;1.90;;;;;;;7.56;84.45;98173.84;6351644;28;20050;-77
2023/02/25 11:25:46;;;;;;;1.88;1.60;;;;;;;7.52;84.39;98170.66;6350953;28;20047;-77
2023/02/25 11:28:48;;;;;;;1.55;1.40;;;;;;;7.57;83.21;98163.31;6349923;28;20411;-77
2023/02/25 11:32:06;;;;;;;4.63;1.98;;;;;;;7.80;85.67;98176.25;6352172;28;20069;-77
2023/02/25 11:35:15;;;;;;;1.15;0.82;;;;;;;7.71;83.62;98179.59;6350228;28;20043;-77
2023/02/25 11:38:22;;;;;;;6.13;2.03;;;;;;;7.91;83.36;98197.00;6350070;28;20081;-77
2023/02/25 11:41:30;;;;;;;1.38;1.13;;;;;;;7.74;81.29;98197.50;6349996;28;20445;-77
2023/02/25 11:44:43;;;;;;;6.00;1.38;;;;;;;7.80;81.49;98218.63;6351396;28;20047;-76
2023/02/25 11:47:44;;;;;;;;;;;;;;;7.65;82.49;98207.66;6384825;27;20105;-77
2023/02/25 11:50:54;;;;;;;1.02;0.70;;;;;;;7.63;80.48;98198.34;6350965;28;19920;-76
2023/02/25 11:54:01;;;;;;;0.73;0.73;;;;;;;7.49;79.28;98207.19;6349615;28;20400;-77
2023/02/25 11:57:18;;;;;;;0.90;0.90;;;;;;;7.55;79.79;98208.50;6350913;28;20461;-77
2023/02/25 12:00:30;;;;;;;3.47;1.13;;;;;;;7.76;79.30;98198.19;6349889;28;20075;-77
2023/02/25 12:04:00;;;;;;;2.85;1.55;;;;;;;7.86;78.97;98205.16;6351161;28;20143;-77
2023/02/25 12:07:38;;;;;;;1.00;0.93;;;;;;;8.01;77.51;98197.06;6331253;28;20063;-77
2023/02/25 12:11:08;;;;;;;2.65;0.90;;;;;;;7.83;75.35;98240.94;6350865;28;20046;-77
2023/02/25 12:14:33;;;;;;;0.77;0.77;;;;;;;7.80;75.30;98222.97;6349802;28;20043;-77
2023/02/25 12:17:49;;;;;;;3.20;1.08;;;;;;;7.76;75.90;98206.00;6350669;28;20047;-77
2023/02/25 12:21:11;;;;;;;5.50;2.83;;;;;;;7.93;76.05;98233.22;6349430;28;20047;-77
2023/02/25 12:24:18;;;;;;;2.45;1.60;;;;;;;8.06;72.20;98232.13;6349313;28;20483;-77
2023/02/25 12:27:28;;;;;;;1.63;1.15;;;;;;;8.02;68.97;98222.94;6349364;28;20100;-77
2023/02/25 12:30:56;;;;;;;0.98;0.60;;;;;;;8.23;66.72;98217.78;6349419;28;20093;-76
2023/02/25 12:34:10;;;;;;;0.77;0.68;;;;;;;8.13;67.17;98211.69;6350072;28;20502;-76
2023/02/25 12:37:29;;;;;;;3.63;1.85;;;;;;;8.19;65.51;98216.38;6349005;28;20036;-76
2023/02/25 12:40:59;;;;;;;1.20;1.20;;;;;;;8.34;61.91;98195.31;6350498;28;20036;-76
2023/02/25 12:44:19;;;;;;;0.70;0.65;;;;;;;8.33;61.63;98204.06;6333827;28;20492;-76
2023/02/25 12:47:49;;;;;;;1.10;0.70;;;;;;;8.79;61.27;98208.09;6348914;28;20442;-76
2023/02/25 12:51:34;;;;;;;2.80;0.75;;;;;;;9.06;57.05;98208.41;6347043;28;20066;-72
2023/02/25 12:54:53;;;;;;;3.65;0.77;;;;;;;8.96;57.75;98199.75;6300448;28;20091;-77
2023/02/25 12:57:56;;;;;;;1.52;1.05;;;;;;;9.27;56.68;98199.75;6348754;28;20050;-77
2023/02/25 13:01:00;;;;;;;1.08;0.57;;;;;;;9.08;56.66;98206.50;6348478;28;20035;-77
2023/02/25 13:04:20;;;;;;;5.60;0.95;;;;;;;8.74;57.92;98203.28;6348425;28;20048;-77
2023/02/25 13:07:39;;;;;;;0.95;0.60;;;;;;;8.47;57.79;98211.59;6348573;28;20045;-78
2023/02/25 13:11:03;;;;;;;1.17;0.60;;;;;;;8.68;58.77;98212.41;6349523;28;20035;-78
2023/02/25 13:14:09;;;;;;;1.05;0.95;;;;;;;8.77;58.56;98204.81;6349195;28;20414;-78
2023/02/25 13:17:31;;;;;;;1.27;0.30;;;;;;;8.41;57.29;98202.53;6349225;28;20031;-78
2023/02/25 13:20:46;;;;;;;1.48;0.85;;;;;;;8.70;58.35;98199.31;6349591;28;20044;-77
2023/02/25 13:24:10;;;;;;;0.55;0.55;;;;;;;8.69;58.03;98228.88;6349712;28;20054;-77
2023/02/25 13:27:15;;;;;;;4.25;2.60;;;;;;;8.82;56.51;98237.28;6349419;28;20111;-77
2023/02/25 13:30:39;;;;;;;1.50;1.20;;;;;;;8.78;55.95;98248.09;6349180;28;20042;-77
2023/02/25 13:34:17;;;;;;;2.20;1.45;;;;;;;8.94;57.80;98248.47;6347327;28;20119;-73
2023/02/25 13:37:36;;;;;;;1.23;0.60;;;;;;;8.65;57.28;98251.69;6347139;28;20043;-78
2023/02/25 13:40:57;;;;;;;3.08;1.70;;;;;;;8.64;57.35;98238.81;6347469;28;20050;-73
2023/02/25 13:44:04;;;;;;;1.90;1.30;;;;;;;8.64;57.26;98257.81;6346217;28;20488;-73
2023/02/25 13:47:24;;;;;;;3.72;1.65;;;;;;;9.15;56.58;98253.66;6345506;28;20053;-73
2023/02/25 13:50:27;;;;;;;4.22;2.03;;;;;;;9.61;57.21;98259.34;6345685;28;20050;-73
2023/02/25 13:53:46;;;;;;;2.75;1.77;;;;;;;9.73;57.21;98258.28;6346482;28;20044;-73
2023/02/25 13:57:12;;;;;;;3.15;1.83;;;;;;;9.79;55.73;98262.16;6346623;28;20438;-72
2023/02/25 14:00:16;;;;;;;1.90;0.93;;;;;;;9.54;54.50;98250.41;6345258;28;20036;-72
2023/02/25 14:03:55;;;;;;;2.80;1.77;;;;;;;9.91;56.21;98268.91;6345133;28;20137;-72
2023/02/25 14:07:20;;;;;;;4.90;2.53;;;;;;;10.17;53.08;98278.84;6346534;28;20537;-72
2023/02/25 14:10:54;;;;;;;1.58;1.20;;;;;;;10.32;54.20;98280.13;6346163;28;20539;-72
2023/02/25 14:14:32;;;;;;;2.05;0.68;;;;;;;10.01;55.35;98288.00;6344937;28;20039;-72
2023/02/25 14:17:48;;;;;;;1.75;0.85;;;;;;;9.96;55.32;98286.75;6346021;28;20123;-72
2023/02/25 14:21:10;;;;;;;2.25;1.02;;;;;;;9.64;54.88;98278.13;6344716;28;20519;-72
2023/02/25 14:24:19;;;;;;;1.27;1.10;;;;;;;9.58;56.99;98298.69;6346857;28;20044;-76
2023/02/25 14:27:38;;;;;;;1.80;0.95;;;;;;;9.65;56.06;98278.97;6347796;28;20063;-76
2023/02/25 14:30:58;;;;;;;0.63;0.52;;;;;;;9.30;56.56;98282.75;6348061;28;20043;-77
2023/02/25 14:34:18;;;;;;;1.02;0.68;;;;;;;9.19;56.57;98295.88;6347955;28;20048;-77
2023/02/25 14:37:51;;;;;;;1.00;0.50;;;;;;;9.20;56.83;98292.28;6347704;28;20044;-77
2023/02/25 14:41:01;;;;;;;0.88;0.75;;;;;;;9.23;56.74;98282.47;6338433;28;20052;-77
2023/02/25 14:44:19;;;;;;;0.80;0.55;;;;;;;9.34;55.53;98302.38;6347987;28;20044;-77